createdAt,value
2022-10-18T00:01:31.725Z,7.43
2022-10-18T00:03:58.466Z,7.39
2022-10-18T00:06:25.205Z,7.36
2022-10-18T00:08:51.911Z,7.33
2022-10-18T00:11:18.607Z,7.30
2022-10-18T00:13:45.320Z,7.27
2022-10-18T00:16:14.211Z,7.24
2022-10-18T00:18:41.225Z,7.22
2022-10-18T00:21:11.562Z,7.20
2022-10-18T00:23:38.269Z,7.19
2022-10-18T00:26:22.264Z,7.19
2022-10-18T00:28:53.963Z,7.18
2022-10-18T00:31:28.403Z,7.18
2022-10-18T00:33:57.049Z,7.17
2022-10-18T00:36:24.368Z,7.18
2022-10-18T00:38:51.236Z,7.17
2022-10-18T00:41:19.300Z,7.18
2022-10-18T00:43:51.965Z,7.18
2022-10-18T00:46:18.646Z,7.18
2022-10-18T00:48:45.351Z,7.17
2022-10-18T00:51:12.142Z,7.17
2022-10-18T00:53:38.748Z,7.17
2022-10-18T00:56:05.712Z,7.18
2022-10-18T00:58:32.400Z,7.17
2022-10-18T01:00:59.082Z,7.17
2022-10-18T01:03:25.838Z,7.17
2022-10-18T01:05:52.511Z,7.17
2022-10-18T01:08:21.851Z,7.17
2022-10-18T01:10:58.343Z,7.16
2022-10-18T01:13:40.289Z,7.15
2022-10-18T01:16:22.224Z,7.12
2022-10-18T01:18:57.650Z,7.10
2022-10-18T01:21:43.212Z,7.05
2022-10-18T01:24:37.912Z,7.05
2022-10-18T01:27:19.851Z,7.02
2022-10-18T01:30:01.883Z,7.01
2022-10-18T01:32:35.147Z,6.99
2022-10-18T01:35:04.175Z,6.98
2022-10-18T01:37:31.187Z,6.95
2022-10-18T01:39:58.367Z,6.94
2022-10-18T01:42:25.034Z,6.92
2022-10-18T01:44:52.467Z,6.93
2022-10-18T01:47:19.261Z,6.93
2022-10-18T01:49:45.939Z,6.95
2022-10-18T01:52:14.165Z,6.97
2022-10-18T01:54:43.418Z,7.00
2022-10-18T01:57:18.039Z,7.02
2022-10-18T01:59:47.750Z,7.06
2022-10-18T02:02:38.004Z,7.11
2022-10-18T02:05:24.456Z,7.17
2022-10-18T02:08:40.738Z,7.22
2022-10-18T02:11:08.986Z,7.29
2022-10-18T02:13:38.584Z,7.33
2022-10-18T02:18:58.948Z,7.42
2022-10-18T02:21:25.644Z,7.45
2022-10-18T02:23:52.298Z,7.48
2022-10-18T02:26:18.992Z,7.51
2022-10-18T02:28:45.747Z,7.53
2022-10-18T02:31:23.588Z,7.54
2022-10-18T02:34:20.987Z,7.54
2022-10-18T02:37:05.622Z,7.53
2022-10-18T02:39:36.211Z,7.51
2022-10-18T02:42:07.027Z,7.47
2022-10-18T02:44:34.635Z,7.42
2022-10-18T02:47:01.664Z,7.38
2022-10-18T02:49:28.424Z,7.34
2022-10-18T02:51:55.260Z,7.29
2022-10-18T02:54:22.241Z,7.24
2022-10-18T02:56:48.930Z,7.18
2022-10-18T02:59:15.646Z,7.12
2022-10-18T03:01:42.340Z,7.09
2022-10-18T03:04:08.985Z,7.04
2022-10-18T03:06:35.740Z,7.05
2022-10-18T03:09:03.845Z,7.02
2022-10-18T03:11:30.670Z,7.01
2022-10-18T03:13:57.342Z,6.98
2022-10-18T03:16:24.242Z,7.02
2022-10-18T03:18:50.923Z,7.04
2022-10-18T03:21:17.621Z,7.07
2022-10-18T03:23:44.281Z,7.11
2022-10-18T03:26:10.940Z,7.14
2022-10-18T03:28:37.712Z,7.18
2022-10-18T03:31:04.454Z,7.21
2022-10-18T03:33:31.434Z,7.26
2022-10-18T03:35:58.134Z,7.28
2022-10-18T03:38:24.835Z,7.32
2022-10-18T03:40:51.587Z,7.36
2022-10-18T03:43:18.315Z,7.39
2022-10-18T03:45:45.012Z,7.41
2022-10-18T03:48:11.740Z,7.43
2022-10-18T03:50:38.533Z,7.45
2022-10-18T03:53:05.108Z,7.46
2022-10-18T03:55:31.863Z,7.46
2022-10-18T03:57:58.546Z,7.45
2022-10-18T04:00:25.323Z,7.43
2022-10-18T04:02:54.962Z,7.41
2022-10-18T04:05:24.162Z,7.39
2022-10-18T04:07:50.960Z,7.37
2022-10-18T04:10:18.791Z,7.36
2022-10-18T04:12:45.505Z,7.37
2022-10-18T04:15:12.382Z,7.37
2022-10-18T04:17:39.033Z,7.38
2022-10-18T04:20:06.368Z,7.39
2022-10-18T04:22:33.110Z,7.39
2022-10-18T04:24:59.867Z,7.41
2022-10-18T04:27:26.584Z,7.41
2022-10-18T04:29:53.324Z,7.41
2022-10-18T04:32:19.989Z,7.40
2022-10-18T04:34:46.792Z,7.39
2022-10-18T04:37:13.513Z,7.40
2022-10-18T04:39:40.282Z,7.39
2022-10-18T04:42:06.950Z,7.38
2022-10-18T04:44:34.582Z,7.37
2022-10-18T04:47:01.245Z,7.36
2022-10-18T04:49:27.994Z,7.34
2022-10-18T04:51:54.699Z,7.34
2022-10-18T04:54:22.879Z,7.34
2022-10-18T04:56:51.977Z,7.35
2022-10-18T04:59:18.806Z,7.38
2022-10-18T05:01:45.723Z,7.42
2022-10-18T05:04:12.712Z,7.46
2022-10-18T05:06:39.485Z,7.50
2022-10-18T05:09:06.277Z,7.53
2022-10-18T05:11:33.016Z,7.55
2022-10-18T05:13:59.754Z,7.60
2022-10-18T05:16:28.441Z,7.65
2022-10-18T05:18:55.284Z,7.70
2022-10-18T05:21:21.875Z,7.75
2022-10-18T05:23:48.536Z,7.81
2022-10-18T05:26:15.244Z,7.87
2022-10-18T05:28:42.061Z,7.95
2022-10-18T05:31:09.889Z,8.02
2022-10-18T05:33:36.617Z,8.08
2022-10-18T05:36:04.031Z,8.16
2022-10-18T05:38:31.199Z,8.23
2022-10-18T05:40:58.927Z,8.30
2022-10-18T05:43:28.972Z,8.39
2022-10-18T05:45:55.892Z,8.47
2022-10-18T05:48:22.579Z,8.57
2022-10-18T05:50:49.347Z,8.66
2022-10-18T05:53:35.851Z,8.76
2022-10-18T05:56:02.917Z,8.88
2022-10-18T05:58:29.661Z,8.97
2022-10-18T06:00:58.794Z,9.06
2022-10-18T06:03:25.827Z,9.15
2022-10-18T06:05:52.538Z,9.25
2022-10-18T06:08:19.293Z,9.33
2022-10-18T06:10:45.890Z,9.41
2022-10-18T06:13:12.585Z,9.50
2022-10-18T06:15:39.284Z,9.57
2022-10-18T06:18:05.995Z,9.66
2022-10-18T06:20:32.716Z,9.74
2022-10-18T06:22:59.295Z,9.83
2022-10-18T06:25:26.034Z,9.92
2022-10-18T06:27:52.702Z,10.01
2022-10-18T06:30:19.487Z,10.11
2022-10-18T06:32:46.096Z,10.20
2022-10-18T06:35:12.843Z,10.31
2022-10-18T06:37:39.548Z,10.40
2022-10-18T06:40:07.085Z,10.52
2022-10-18T06:42:34.218Z,10.63
2022-10-18T06:45:01.137Z,10.74
2022-10-18T06:47:27.784Z,10.85
2022-10-18T06:49:54.542Z,10.96
2022-10-18T06:52:25.595Z,11.08
2022-10-18T06:54:53.059Z,11.19
2022-10-18T06:57:20.772Z,11.30
2022-10-18T06:59:47.436Z,11.40
2022-10-18T07:02:14.747Z,11.51
2022-10-18T07:04:41.776Z,11.61
2022-10-18T07:07:08.413Z,11.71
2022-10-18T07:09:35.461Z,11.81
2022-10-18T07:12:02.154Z,11.91
2022-10-18T07:14:29.258Z,12.02
2022-10-18T07:16:59.120Z,12.12
2022-10-18T07:19:25.901Z,12.22
2022-10-18T07:21:52.528Z,12.34
2022-10-18T07:24:19.242Z,12.45
2022-10-18T07:26:45.866Z,12.56
2022-10-18T07:29:13.185Z,12.69
2022-10-18T07:34:14.071Z,12.85
2022-10-18T07:36:41.158Z,12.86
2022-10-18T07:39:07.961Z,12.89
2022-10-18T07:41:34.816Z,12.91
2022-10-18T07:44:02.150Z,12.94
2022-10-18T07:46:28.912Z,12.99
2022-10-18T07:48:55.622Z,13.05
2022-10-18T07:51:22.408Z,13.12
2022-10-18T07:53:49.102Z,13.19
2022-10-18T07:56:17.058Z,13.26
2022-10-18T07:58:44.216Z,13.36
2022-10-18T08:01:10.967Z,13.45
2022-10-18T08:03:38.373Z,13.55
2022-10-18T08:06:06.141Z,13.64
2022-10-18T08:08:32.843Z,13.73
2022-10-18T08:11:08.330Z,13.82
2022-10-18T08:13:35.041Z,13.92
2022-10-18T08:16:02.108Z,14.04
2022-10-18T08:18:29.084Z,14.14
2022-10-18T08:20:55.778Z,14.25
2022-10-18T08:23:22.471Z,14.34
2022-10-18T08:25:49.119Z,14.44
2022-10-18T08:28:17.338Z,14.55
2022-10-18T08:30:44.085Z,14.65
2022-10-18T08:33:10.793Z,14.73
2022-10-18T08:35:37.492Z,14.83
2022-10-18T08:38:04.222Z,14.94
2022-10-18T08:40:42.850Z,15.04
2022-10-18T08:43:23.998Z,15.12
2022-10-18T08:45:50.776Z,15.21
2022-10-18T08:48:29.271Z,15.32
2022-10-18T08:50:55.925Z,15.41
2022-10-18T08:53:35.086Z,15.49
2022-10-18T08:56:14.613Z,15.58
2022-10-18T08:58:44.111Z,15.67
2022-10-18T09:01:18.657Z,15.75
2022-10-18T09:04:01.787Z,15.84
2022-10-18T09:06:40.634Z,15.94
2022-10-18T09:09:28.399Z,16.00
2022-10-18T09:12:18.249Z,16.11
2022-10-18T09:14:54.147Z,16.23
2022-10-18T09:17:35.611Z,16.34
2022-10-18T09:20:24.523Z,16.44
2022-10-18T09:22:57.350Z,16.57
2022-10-18T09:25:36.287Z,16.68
2022-10-18T09:28:30.755Z,16.77
2022-10-18T09:31:07.878Z,16.87
2022-10-18T09:33:46.720Z,16.94
2022-10-18T09:36:21.992Z,17.01
2022-10-18T09:38:56.089Z,17.05
2022-10-18T09:41:45.690Z,17.11
2022-10-18T09:44:15.424Z,17.19
2022-10-18T09:46:46.472Z,17.24
2022-10-18T09:49:19.822Z,17.29
2022-10-18T09:51:47.215Z,17.38
2022-10-18T09:54:28.141Z,17.46
2022-10-18T09:57:11.427Z,17.53
2022-10-18T09:59:46.977Z,17.60
2022-10-18T10:02:15.408Z,17.66
2022-10-18T10:04:42.236Z,17.72
2022-10-18T10:07:12.250Z,17.76
2022-10-18T10:09:46.321Z,17.80
2022-10-18T10:12:32.240Z,17.85
2022-10-18T10:15:28.140Z,17.90
2022-10-18T10:18:05.525Z,17.95
2022-10-18T10:20:44.809Z,18.01
2022-10-18T10:25:52.100Z,18.11
2022-10-18T10:28:20.922Z,18.15
2022-10-18T10:30:47.687Z,18.19
2022-10-18T10:33:33.370Z,18.24
2022-10-18T10:36:00.880Z,18.28
2022-10-18T10:38:29.200Z,18.30
2022-10-18T10:40:56.026Z,18.33
2022-10-18T10:43:37.567Z,18.34
2022-10-18T10:46:17.087Z,18.38
2022-10-18T10:49:21.590Z,18.40
2022-10-18T10:51:45.266Z,18.42
2022-10-18T10:54:16.883Z,18.43
2022-10-18T10:56:51.739Z,18.44
2022-10-18T10:59:19.022Z,18.45
2022-10-18T11:01:47.829Z,18.45
2022-10-18T11:04:28.838Z,18.47
2022-10-18T11:06:58.022Z,18.46
2022-10-18T11:09:38.847Z,18.47
2022-10-18T11:12:14.463Z,18.48
2022-10-18T11:14:43.042Z,18.51
2022-10-18T11:17:18.034Z,18.55
2022-10-18T11:19:49.345Z,18.58
2022-10-18T11:22:18.788Z,18.61
2022-10-18T11:24:45.555Z,18.65
2022-10-18T11:27:18.936Z,18.69
2022-10-18T11:29:55.395Z,18.73
2022-10-18T11:33:04.490Z,18.76
2022-10-18T11:35:36.222Z,18.74
2022-10-18T11:38:12.544Z,18.80
2022-10-18T11:41:11.670Z,18.82
2022-10-18T11:44:01.833Z,18.82
2022-10-18T11:46:45.925Z,18.81
2022-10-18T11:49:24.837Z,18.84
2022-10-18T11:52:08.373Z,18.85
2022-10-18T11:55:05.638Z,18.86
2022-10-18T11:57:41.015Z,18.89
2022-10-18T12:00:22.896Z,18.92
2022-10-18T12:02:52.357Z,18.93
2022-10-18T12:05:23.718Z,18.98
2022-10-18T12:07:58.857Z,19.01
2022-10-18T12:10:37.863Z,19.03
2022-10-18T12:13:29.997Z,19.05
2022-10-18T12:15:56.651Z,19.07
2022-10-18T12:18:23.863Z,19.10
2022-10-18T12:20:54.696Z,19.11
2022-10-18T12:23:36.484Z,19.10
2022-10-18T12:26:05.357Z,19.13
2022-10-18T12:28:56.493Z,19.14
2022-10-18T12:31:46.374Z,19.14
2022-10-18T12:34:16.179Z,19.14
2022-10-18T12:36:46.492Z,19.15
2022-10-18T12:39:27.278Z,19.15
2022-10-18T12:42:04.566Z,19.12
2022-10-18T12:44:32.902Z,19.14
2022-10-18T12:47:03.855Z,19.15
2022-10-18T12:49:35.014Z,19.15
2022-10-18T12:52:03.565Z,19.16
2022-10-18T12:54:31.656Z,19.16
2022-10-18T12:56:59.430Z,19.17
2022-10-18T12:59:26.771Z,19.17
2022-10-18T13:01:53.602Z,19.16
2022-10-18T13:04:32.309Z,19.15
2022-10-18T13:07:05.013Z,19.13
2022-10-18T13:09:35.416Z,19.12
2022-10-18T13:12:11.294Z,19.10
2022-10-18T13:15:24.347Z,19.07
2022-10-18T13:18:06.853Z,19.04
2022-10-18T13:20:38.646Z,19.03
2022-10-18T13:23:31.623Z,19.01
2022-10-18T13:26:54.133Z,18.99
2022-10-18T13:29:58.983Z,18.96
2022-10-18T13:32:47.488Z,18.92
2022-10-18T13:35:52.142Z,18.88
2022-10-18T13:38:58.099Z,18.85
2022-10-18T13:41:35.266Z,18.81
2022-10-18T13:44:25.423Z,18.77
2022-10-18T13:46:52.061Z,18.71
2022-10-18T13:49:39.975Z,18.67
2022-10-18T13:52:28.533Z,18.59
2022-10-18T13:55:20.178Z,18.55
2022-10-18T13:58:11.602Z,18.48
2022-10-18T14:00:53.283Z,18.39
2022-10-18T14:03:57.552Z,18.28
2022-10-18T14:06:37.104Z,18.20
2022-10-18T14:12:26.983Z,18.04
2022-10-18T14:15:09.334Z,17.98
2022-10-18T14:17:42.970Z,17.91
2022-10-18T14:20:13.279Z,17.84
2022-10-18T14:22:48.753Z,17.77
2022-10-18T14:25:20.948Z,17.71
2022-10-18T14:27:50.884Z,17.65
2022-10-18T14:30:20.860Z,17.59
2022-10-18T14:32:48.822Z,17.54
2022-10-18T14:35:32.168Z,17.47
2022-10-18T14:37:59.514Z,17.41
2022-10-18T14:40:38.977Z,17.35
2022-10-18T14:43:18.406Z,17.28
2022-10-18T14:45:45.336Z,17.20
2022-10-18T14:48:16.838Z,17.13
2022-10-18T14:50:44.811Z,17.07
2022-10-18T14:53:16.660Z,17.00
2022-10-18T14:55:43.407Z,16.92
2022-10-18T14:58:14.768Z,16.84
2022-10-18T15:00:43.876Z,16.75
2022-10-18T15:03:14.593Z,16.65
2022-10-18T15:06:01.257Z,16.54
2022-10-18T15:08:37.921Z,16.42
2022-10-18T15:11:04.920Z,16.33
2022-10-18T15:13:31.774Z,16.23
2022-10-18T15:15:58.485Z,16.15
2022-10-18T15:18:26.384Z,16.07
2022-10-18T15:21:24.503Z,16.00
2022-10-18T15:23:51.326Z,15.90
2022-10-18T15:26:29.597Z,15.81
2022-10-18T15:29:00.489Z,15.71
2022-10-18T15:31:34.942Z,15.60
2022-10-18T15:34:11.658Z,15.50
2022-10-18T15:36:38.580Z,15.41
2022-10-18T15:39:26.420Z,15.34
2022-10-18T15:41:53.854Z,15.25
2022-10-18T15:44:23.586Z,15.18
2022-10-18T15:46:52.948Z,15.12
2022-10-18T15:49:28.772Z,15.07
2022-10-18T15:52:07.614Z,15.01
2022-10-18T15:54:34.622Z,14.94
2022-10-18T15:57:07.076Z,14.89
2022-10-18T15:59:33.748Z,14.85
2022-10-18T16:02:00.640Z,14.82
2022-10-18T16:04:29.108Z,14.79
2022-10-18T16:06:56.481Z,14.78
2022-10-18T16:09:24.432Z,14.75
2022-10-18T16:11:56.407Z,14.72
2022-10-18T16:14:23.818Z,14.69
2022-10-18T16:16:52.962Z,14.66
2022-10-18T16:19:22.586Z,14.62
2022-10-18T16:21:49.834Z,14.59
2022-10-18T16:24:16.673Z,14.55
2022-10-18T16:26:43.433Z,14.52
2022-10-18T16:29:19.499Z,14.48
2022-10-18T16:31:46.860Z,14.45
2022-10-18T16:34:14.923Z,14.41
2022-10-18T16:36:41.760Z,14.36
2022-10-18T16:39:14.190Z,14.35
2022-10-18T16:41:41.018Z,14.33
2022-10-18T16:44:07.799Z,14.30
2022-10-18T16:46:34.911Z,14.28
2022-10-18T16:49:01.865Z,14.25
2022-10-18T16:51:28.668Z,14.22
2022-10-18T16:53:55.604Z,14.18
2022-10-18T16:56:27.010Z,14.18
2022-10-18T16:58:53.833Z,14.16
2022-10-18T17:01:21.631Z,14.14
2022-10-18T17:03:48.495Z,14.12
2022-10-18T17:06:19.655Z,14.12
2022-10-18T17:08:46.549Z,14.09
2022-10-18T17:11:13.924Z,14.10
2022-10-18T17:13:40.726Z,14.09
2022-10-18T17:16:07.925Z,14.09
2022-10-18T17:18:34.656Z,14.06
2022-10-18T17:21:03.413Z,14.05
2022-10-18T17:23:30.327Z,14.03
2022-10-18T17:26:06.716Z,14.01
2022-10-18T17:28:36.518Z,13.99
2022-10-18T17:31:06.159Z,13.94
2022-10-18T17:33:32.962Z,13.90
2022-10-18T17:35:59.808Z,13.85
2022-10-18T17:38:26.631Z,13.79
2022-10-18T17:40:53.596Z,13.75
2022-10-18T17:43:20.381Z,13.72
2022-10-18T17:45:48.491Z,13.69
2022-10-18T17:48:17.229Z,13.66
2022-10-18T17:50:45.513Z,13.64
2022-10-18T17:53:13.222Z,13.62
2022-10-18T17:55:40.123Z,13.60
2022-10-18T17:58:06.872Z,13.57
2022-10-18T18:00:33.689Z,13.55
2022-10-18T18:03:00.653Z,13.52
2022-10-18T18:05:31.393Z,13.47
2022-10-18T18:08:02.710Z,13.47
2022-10-18T18:10:35.781Z,13.43
2022-10-18T18:13:02.651Z,13.40
2022-10-18T18:15:29.911Z,13.37
2022-10-18T18:17:57.618Z,13.34
2022-10-18T18:20:25.731Z,13.31
2022-10-18T18:22:52.616Z,13.26
2022-10-18T18:25:19.388Z,13.22
2022-10-18T18:27:46.125Z,13.20
2022-10-18T18:30:13.450Z,13.16
2022-10-18T18:32:40.249Z,13.14
2022-10-18T18:35:07.386Z,13.09
2022-10-18T18:37:34.224Z,13.06
2022-10-18T18:40:01.066Z,13.02
2022-10-18T18:42:28.003Z,13.00
2022-10-18T18:44:54.846Z,12.97
2022-10-18T18:47:23.659Z,12.94
2022-10-18T18:49:51.810Z,12.91
2022-10-18T18:52:18.645Z,12.87
2022-10-18T18:54:45.487Z,12.84
2022-10-18T18:57:12.431Z,12.81
2022-10-18T18:59:39.274Z,12.77
2022-10-18T19:02:07.342Z,12.73
2022-10-18T19:04:35.177Z,12.69
2022-10-18T19:07:02.231Z,12.66
2022-10-18T19:09:29.105Z,12.63
2022-10-18T19:11:57.480Z,12.59
2022-10-18T19:14:25.497Z,12.56
2022-10-18T19:16:55.918Z,12.54
2022-10-18T19:19:24.759Z,12.48
2022-10-18T19:21:53.185Z,12.51
2022-10-18T19:24:20.544Z,12.50
2022-10-18T19:26:51.598Z,12.48
2022-10-18T19:29:23.668Z,12.47
2022-10-18T19:31:51.213Z,12.46
2022-10-18T19:34:19.178Z,12.44
2022-10-18T19:36:46.419Z,12.43
2022-10-18T19:39:18.351Z,12.42
2022-10-18T19:41:46.202Z,12.40
2022-10-18T19:44:12.950Z,12.39
2022-10-18T19:46:39.546Z,12.38
2022-10-18T19:51:20.249Z,12.36
2022-10-18T19:53:50.783Z,12.32
2022-10-18T19:56:18.943Z,12.31
2022-10-18T19:58:46.310Z,12.29
2022-10-18T20:01:14.654Z,12.27
2022-10-18T20:03:41.582Z,12.24
2022-10-18T20:06:08.378Z,12.21
2022-10-18T20:08:35.144Z,12.18
2022-10-18T20:11:09.500Z,12.15
2022-10-18T20:13:36.424Z,12.13
2022-10-18T20:16:03.855Z,12.11
2022-10-18T20:18:30.559Z,12.09
2022-10-18T20:20:57.189Z,12.07
2022-10-18T20:23:23.890Z,12.04
2022-10-18T20:25:57.442Z,12.01
2022-10-18T20:28:25.070Z,11.99
2022-10-18T20:31:10.122Z,11.97
2022-10-18T20:33:36.874Z,11.95
2022-10-18T20:36:07.371Z,11.93
2022-10-18T20:38:34.862Z,11.92
2022-10-18T20:41:03.538Z,11.92
2022-10-18T20:43:30.265Z,11.92
2022-10-18T20:45:57.725Z,11.91
2022-10-18T20:48:25.180Z,11.87
2022-10-18T20:50:52.155Z,11.89
2022-10-18T20:53:18.920Z,11.87
2022-10-18T20:55:45.502Z,11.87
2022-10-18T20:58:12.158Z,11.87
2022-10-18T21:00:38.856Z,11.86
2022-10-18T21:03:05.614Z,11.84
2022-10-18T21:05:32.468Z,11.84
2022-10-18T21:07:59.233Z,11.83
2022-10-18T21:10:25.892Z,11.82
2022-10-18T21:12:52.733Z,11.81
2022-10-18T21:15:19.508Z,11.80
2022-10-18T21:17:49.819Z,11.80
2022-10-18T21:20:16.597Z,11.79
2022-10-18T21:22:43.226Z,11.79
2022-10-18T21:25:10.398Z,11.78
2022-10-18T21:27:37.061Z,11.78
2022-10-18T21:30:04.060Z,11.78
2022-10-18T21:32:31.356Z,11.79
2022-10-18T21:34:58.263Z,11.79
2022-10-18T21:37:24.829Z,11.79
2022-10-18T21:39:51.572Z,11.80
2022-10-18T21:42:18.308Z,11.80
2022-10-18T21:44:45.153Z,11.80
2022-10-18T21:47:11.818Z,11.79
2022-10-18T21:49:38.528Z,11.80
2022-10-18T21:52:05.478Z,11.80
2022-10-18T21:54:32.210Z,11.81
2022-10-18T21:56:58.807Z,11.79
2022-10-18T21:59:25.587Z,11.79
2022-10-18T22:01:52.244Z,11.77
2022-10-18T22:04:21.363Z,11.76
2022-10-18T22:06:48.469Z,11.76
2022-10-18T22:09:15.273Z,11.74
2022-10-18T22:11:43.001Z,11.74
2022-10-18T22:14:09.776Z,11.73
2022-10-18T22:16:36.500Z,11.71
2022-10-18T22:19:03.337Z,11.70
2022-10-18T22:21:30.039Z,11.69
2022-10-18T22:23:59.759Z,11.68
2022-10-18T22:26:28.294Z,11.67
2022-10-18T22:28:59.253Z,11.66
2022-10-18T22:31:27.665Z,11.64
2022-10-18T22:33:55.442Z,11.63
2022-10-18T22:36:22.329Z,11.61
2022-10-18T22:38:49.006Z,11.59
2022-10-18T22:41:15.719Z,11.56
2022-10-18T22:43:42.494Z,11.55
2022-10-18T22:46:12.934Z,11.53
2022-10-18T22:48:39.796Z,11.51
2022-10-18T22:51:06.651Z,11.49
2022-10-18T22:53:33.498Z,11.47
2022-10-18T22:56:00.155Z,11.44
2022-10-18T22:58:26.820Z,11.43
2022-10-18T23:01:07.731Z,11.40
2022-10-18T23:03:34.495Z,11.37
2022-10-18T23:06:01.208Z,11.32
2022-10-18T23:08:27.985Z,11.27
2022-10-18T23:10:56.774Z,11.23
2022-10-18T23:13:23.956Z,11.21
2022-10-18T23:15:50.780Z,11.18
2022-10-18T23:18:17.757Z,11.15
2022-10-18T23:20:45.198Z,11.11
2022-10-18T23:23:12.722Z,11.10
2022-10-18T23:25:39.507Z,11.08
2022-10-18T23:28:06.193Z,11.03
2022-10-18T23:30:32.907Z,11.03
2022-10-18T23:32:59.518Z,10.99
2022-10-18T23:35:26.574Z,10.96
2022-10-18T23:37:53.238Z,10.93
2022-10-18T23:40:19.926Z,10.91
2022-10-18T23:42:46.603Z,10.90
2022-10-18T23:45:13.283Z,10.89
2022-10-18T23:47:39.868Z,10.87
2022-10-18T23:50:06.916Z,10.85
2022-10-18T23:52:33.595Z,10.83
2022-10-18T23:55:00.249Z,10.83
2022-10-18T23:57:27.316Z,10.82
2022-10-18T23:59:53.986Z,10.83
